sensor_id;sensor_type;location;lat;lon;timestamp;temperature;humidity
20141;DHT22;10231;47.702;9.826;2022-10-23T00:03:50;10.80;99.90
20141;DHT22;10231;47.702;9.826;2022-10-23T00:06:16;10.80;99.90
20141;DHT22;10231;47.702;9.826;2022-10-23T00:08:42;10.80;99.90
20141;DHT22;10231;47.702;9.826;2022-10-23T00:11:10;10.80;99.90
20141;DHT22;10231;47.702;9.826;2022-10-23T00:13:37;10.90;99.90
20141;DHT22;10231;47.702;9.826;2022-10-23T00:16:03;10.90;99.90
20141;DHT22;10231;47.702;9.826;2022-10-23T00:18:29;10.80;99.90
20141;DHT22;10231;47.702;9.826;2022-10-23T00:20:55;10.80;99.90
20141;DHT22;10231;47.702;9.826;2022-10-23T00:23:22;10.80;99.90
20141;DHT22;10231;47.702;9.826;2022-10-23T00:25:47;10.80;99.90
20141;DHT22;10231;47.702;9.826;2022-10-23T00:28:13;10.70;99.90
20141;DHT22;10231;47.702;9.826;2022-10-23T00:30:39;10.70;99.90
20141;DHT22;10231;47.702;9.826;2022-10-23T00:33:04;10.60;99.90
20141;DHT22;10231;47.702;9.826;2022-10-23T00:35:30;10.70;99.90
20141;DHT22;10231;47.702;9.826;2022-10-23T00:37:56;10.70;99.90
20141;DHT22;10231;47.702;9.826;2022-10-23T00:40:21;10.70;99.90
20141;DHT22;10231;47.702;9.826;2022-10-23T00:42:47;10.70;99.90
20141;DHT22;10231;47.702;9.826;2022-10-23T00:45:18;10.70;99.90
20141;DHT22;10231;47.702;9.826;2022-10-23T00:47:44;10.70;99.90
20141;DHT22;10231;47.702;9.826;2022-10-23T00:50:10;10.70;99.90
20141;DHT22;10231;47.702;9.826;2022-10-23T00:52:45;10.70;99.90
20141;DHT22;10231;47.702;9.826;2022-10-23T00:55:11;10.60;99.90
20141;DHT22;10231;47.702;9.826;2022-10-23T00:57:40;10.50;99.90
20141;DHT22;10231;47.702;9.826;2022-10-23T01:00:07;10.50;99.90
20141;DHT22;10231;47.702;9.826;2022-10-23T01:02:33;10.50;99.90
20141;DHT22;10231;47.702;9.826;2022-10-23T01:04:58;10.50;99.90
20141;DHT22;10231;47.702;9.826;2022-10-23T01:07:55;10.40;99.90
20141;DHT22;10231;47.702;9.826;2022-10-23T01:10:34;10.50;99.90
20141;DHT22;10231;47.702;9.826;2022-10-23T01:13:08;10.50;99.90
20141;DHT22;10231;47.702;9.826;2022-10-23T01:15:49;10.50;99.90
20141;DHT22;10231;47.702;9.826;2022-10-23T01:18:25;10.50;99.90
20141;DHT22;10231;47.702;9.826;2022-10-23T01:29:00;10.20;99.90
20141;DHT22;10231;47.702;9.826;2022-10-23T01:34:25;10.10;99.90
20141;DHT22;10231;47.702;9.826;2022-10-23T01:36:53;10.20;99.90
20141;DHT22;10231;47.702;9.826;2022-10-23T01:39:24;10.10;99.90
20141;DHT22;10231;47.702;9.826;2022-10-23T01:41:58;10.10;99.90
20141;DHT22;10231;47.702;9.826;2022-10-23T01:44:33;10.10;99.90
20141;DHT22;10231;47.702;9.826;2022-10-23T01:47:01;10.10;99.90
20141;DHT22;10231;47.702;9.826;2022-10-23T01:49:28;10.10;99.90
20141;DHT22;10231;47.702;9.826;2022-10-23T01:51:57;10.10;99.90
20141;DHT22;10231;47.702;9.826;2022-10-23T01:54:28;10.10;99.90
20141;DHT22;10231;47.702;9.826;2022-10-23T01:56:56;10.10;99.90
20141;DHT22;10231;47.702;9.826;2022-10-23T01:59:27;10.20;99.90
20141;DHT22;10231;47.702;9.826;2022-10-23T02:01:55;10.20;99.90
20141;DHT22;10231;47.702;9.826;2022-10-23T02:04:30;10.30;99.90
20141;DHT22;10231;47.702;9.826;2022-10-23T02:06:58;10.30;99.90
20141;DHT22;10231;47.702;9.826;2022-10-23T02:09:24;10.30;99.90
20141;DHT22;10231;47.702;9.826;2022-10-23T02:12:02;10.20;99.90
20141;DHT22;10231;47.702;9.826;2022-10-23T02:17:26;10.10;99.90
20141;DHT22;10231;47.702;9.826;2022-10-23T02:20:02;10.10;99.90
20141;DHT22;10231;47.702;9.826;2022-10-23T02:22:37;10.10;99.90
20141;DHT22;10231;47.702;9.826;2022-10-23T02:25:09;10.10;99.90
20141;DHT22;10231;47.702;9.826;2022-10-23T02:27:44;10.20;99.90
20141;DHT22;10231;47.702;9.826;2022-10-23T02:30:13;10.30;99.90
20141;DHT22;10231;47.702;9.826;2022-10-23T02:32:43;10.30;99.90
20141;DHT22;10231;47.702;9.826;2022-10-23T02:35:11;10.40;99.90
20141;DHT22;10231;47.702;9.826;2022-10-23T02:37:36;10.40;99.90
20141;DHT22;10231;47.702;9.826;2022-10-23T02:40:03;10.50;99.90
20141;DHT22;10231;47.702;9.826;2022-10-23T02:42:38;10.40;99.90
20141;DHT22;10231;47.702;9.826;2022-10-23T02:45:15;10.30;99.90
20141;DHT22;10231;47.702;9.826;2022-10-23T02:47:45;10.20;99.90
20141;DHT22;10231;47.702;9.826;2022-10-23T02:58:30;10.10;99.90
20141;DHT22;10231;47.702;9.826;2022-10-23T03:01:12;10.00;99.90
20141;DHT22;10231;47.702;9.826;2022-10-23T03:03:59;10.00;99.90
20141;DHT22;10231;47.702;9.826;2022-10-23T03:06:26;9.90;99.90
20141;DHT22;10231;47.702;9.826;2022-10-23T03:09:05;9.80;99.90
20141;DHT22;10231;47.702;9.826;2022-10-23T03:11:31;9.80;99.90
20141;DHT22;10231;47.702;9.826;2022-10-23T03:13:57;9.80;99.90
20141;DHT22;10231;47.702;9.826;2022-10-23T03:16:23;9.70;99.90
20141;DHT22;10231;47.702;9.826;2022-10-23T03:18:48;9.60;99.90
20141;DHT22;10231;47.702;9.826;2022-10-23T03:21:14;9.70;99.90
20141;DHT22;10231;47.702;9.826;2022-10-23T03:23:39;9.70;99.90
20141;DHT22;10231;47.702;9.826;2022-10-23T03:26:05;9.70;99.90
20141;DHT22;10231;47.702;9.826;2022-10-23T03:28:30;9.70;99.90
20141;DHT22;10231;47.702;9.826;2022-10-23T03:30:56;9.80;99.90
20141;DHT22;10231;47.702;9.826;2022-10-23T03:33:22;9.70;99.90
20141;DHT22;10231;47.702;9.826;2022-10-23T03:35:48;9.70;99.90
20141;DHT22;10231;47.702;9.826;2022-10-23T03:38:13;9.70;99.90
20141;DHT22;10231;47.702;9.826;2022-10-23T03:40:39;9.70;99.90
20141;DHT22;10231;47.702;9.826;2022-10-23T03:43:05;9.60;99.90
20141;DHT22;10231;47.702;9.826;2022-10-23T03:45:30;9.60;99.90
20141;DHT22;10231;47.702;9.826;2022-10-23T03:47:57;9.60;99.90
20141;DHT22;10231;47.702;9.826;2022-10-23T03:50:23;9.70;99.90
20141;DHT22;10231;47.702;9.826;2022-10-23T03:52:49;9.70;99.90
20141;DHT22;10231;47.702;9.826;2022-10-23T03:55:14;9.70;99.90
20141;DHT22;10231;47.702;9.826;2022-10-23T03:57:40;9.80;99.90
20141;DHT22;10231;47.702;9.826;2022-10-23T04:00:06;9.80;99.90
20141;DHT22;10231;47.702;9.826;2022-10-23T04:02:32;9.70;99.90
20141;DHT22;10231;47.702;9.826;2022-10-23T04:04:58;9.80;99.90
20141;DHT22;10231;47.702;9.826;2022-10-23T04:07:23;9.80;99.90
20141;DHT22;10231;47.702;9.826;2022-10-23T04:09:49;9.80;99.90
20141;DHT22;10231;47.702;9.826;2022-10-23T04:12:14;9.70;99.90
20141;DHT22;10231;47.702;9.826;2022-10-23T04:14:40;9.70;99.90
20141;DHT22;10231;47.702;9.826;2022-10-23T04:17:05;9.70;99.90
20141;DHT22;10231;47.702;9.826;2022-10-23T04:19:31;9.70;99.90
20141;DHT22;10231;47.702;9.826;2022-10-23T04:21:57;9.70;99.90
20141;DHT22;10231;47.702;9.826;2022-10-23T04:24:23;9.60;99.90
20141;DHT22;10231;47.702;9.826;2022-10-23T04:26:49;9.60;99.90
20141;DHT22;10231;47.702;9.826;2022-10-23T04:29:15;9.50;99.90
20141;DHT22;10231;47.702;9.826;2022-10-23T04:31:40;9.40;99.90
20141;DHT22;10231;47.702;9.826;2022-10-23T04:34:06;9.40;99.90
20141;DHT22;10231;47.702;9.826;2022-10-23T04:36:31;9.40;99.90
20141;DHT22;10231;47.702;9.826;2022-10-23T04:38:57;9.40;99.90
20141;DHT22;10231;47.702;9.826;2022-10-23T04:41:22;9.50;99.90
20141;DHT22;10231;47.702;9.826;2022-10-23T04:43:48;9.50;99.90
20141;DHT22;10231;47.702;9.826;2022-10-23T04:46:13;9.50;99.90
20141;DHT22;10231;47.702;9.826;2022-10-23T04:48:39;9.50;99.90
20141;DHT22;10231;47.702;9.826;2022-10-23T04:51:05;9.30;99.90
20141;DHT22;10231;47.702;9.826;2022-10-23T04:53:31;9.30;99.90
20141;DHT22;10231;47.702;9.826;2022-10-23T04:55:57;9.30;99.90
20141;DHT22;10231;47.702;9.826;2022-10-23T04:58:25;9.20;99.90
20141;DHT22;10231;47.702;9.826;2022-10-23T05:00:51;9.30;99.90
20141;DHT22;10231;47.702;9.826;2022-10-23T05:03:17;9.30;99.90
20141;DHT22;10231;47.702;9.826;2022-10-23T05:05:43;9.30;99.90
20141;DHT22;10231;47.702;9.826;2022-10-23T05:08:09;9.40;99.90
20141;DHT22;10231;47.702;9.826;2022-10-23T05:10:35;9.50;99.90
20141;DHT22;10231;47.702;9.826;2022-10-23T05:13:01;9.60;99.90
20141;DHT22;10231;47.702;9.826;2022-10-23T05:15:27;9.40;99.90
20141;DHT22;10231;47.702;9.826;2022-10-23T05:17:56;9.40;99.90
20141;DHT22;10231;47.702;9.826;2022-10-23T05:20:27;9.40;99.90
20141;DHT22;10231;47.702;9.826;2022-10-23T05:22:54;9.50;99.90
20141;DHT22;10231;47.702;9.826;2022-10-23T05:25:21;9.40;99.90
20141;DHT22;10231;47.702;9.826;2022-10-23T05:27:46;9.30;99.90
20141;DHT22;10231;47.702;9.826;2022-10-23T05:30:12;9.30;99.90
20141;DHT22;10231;47.702;9.826;2022-10-23T05:32:38;9.30;99.90
20141;DHT22;10231;47.702;9.826;2022-10-23T05:35:11;9.50;99.90
20141;DHT22;10231;47.702;9.826;2022-10-23T05:37:40;9.40;99.90
20141;DHT22;10231;47.702;9.826;2022-10-23T05:40:08;9.40;99.90
20141;DHT22;10231;47.702;9.826;2022-10-23T05:42:34;9.40;99.90
20141;DHT22;10231;47.702;9.826;2022-10-23T05:44:59;9.40;99.90
20141;DHT22;10231;47.702;9.826;2022-10-23T05:47:25;9.40;99.90
20141;DHT22;10231;47.702;9.826;2022-10-23T05:49:50;9.40;99.90
20141;DHT22;10231;47.702;9.826;2022-10-23T05:52:16;9.40;99.90
20141;DHT22;10231;47.702;9.826;2022-10-23T05:54:44;9.40;99.90
20141;DHT22;10231;47.702;9.826;2022-10-23T05:57:10;9.30;99.90
20141;DHT22;10231;47.702;9.826;2022-10-23T05:59:35;9.30;99.90
20141;DHT22;10231;47.702;9.826;2022-10-23T06:02:01;9.10;99.90
20141;DHT22;10231;47.702;9.826;2022-10-23T06:04:26;9.00;99.90
20141;DHT22;10231;47.702;9.826;2022-10-23T06:06:52;9.00;99.90
20141;DHT22;10231;47.702;9.826;2022-10-23T06:09:17;9.10;99.90
20141;DHT22;10231;47.702;9.826;2022-10-23T06:11:43;9.10;99.90
20141;DHT22;10231;47.702;9.826;2022-10-23T06:14:08;9.10;99.90
20141;DHT22;10231;47.702;9.826;2022-10-23T06:16:34;9.10;99.90
20141;DHT22;10231;47.702;9.826;2022-10-23T06:19:00;9.20;99.90
20141;DHT22;10231;47.702;9.826;2022-10-23T06:21:25;9.30;99.90
20141;DHT22;10231;47.702;9.826;2022-10-23T06:23:51;9.40;99.90
20141;DHT22;10231;47.702;9.826;2022-10-23T06:26:18;9.50;99.90
20141;DHT22;10231;47.702;9.826;2022-10-23T06:28:44;9.50;99.90
20141;DHT22;10231;47.702;9.826;2022-10-23T06:31:13;9.50;99.90
20141;DHT22;10231;47.702;9.826;2022-10-23T06:33:39;9.60;99.90
20141;DHT22;10231;47.702;9.826;2022-10-23T06:36:05;9.50;99.90
20141;DHT22;10231;47.702;9.826;2022-10-23T06:38:35;9.50;99.90
20141;DHT22;10231;47.702;9.826;2022-10-23T06:41:04;9.40;99.90
20141;DHT22;10231;47.702;9.826;2022-10-23T06:43:30;9.50;99.90
20141;DHT22;10231;47.702;9.826;2022-10-23T06:45:55;9.50;99.90
20141;DHT22;10231;47.702;9.826;2022-10-23T06:48:24;9.50;99.90
20141;DHT22;10231;47.702;9.826;2022-10-23T06:50:49;9.50;99.90
20141;DHT22;10231;47.702;9.826;2022-10-23T06:53:15;9.50;99.90
20141;DHT22;10231;47.702;9.826;2022-10-23T06:55:40;9.50;99.90
20141;DHT22;10231;47.702;9.826;2022-10-23T06:58:06;9.60;99.90
20141;DHT22;10231;47.702;9.826;2022-10-23T07:00:36;9.60;99.90
20141;DHT22;10231;47.702;9.826;2022-10-23T07:03:02;9.60;99.90
20141;DHT22;10231;47.702;9.826;2022-10-23T07:05:28;9.60;99.90
20141;DHT22;10231;47.702;9.826;2022-10-23T07:07:53;9.60;99.90
20141;DHT22;10231;47.702;9.826;2022-10-23T07:10:20;9.70;99.90
20141;DHT22;10231;47.702;9.826;2022-10-23T07:12:46;9.80;99.90
20141;DHT22;10231;47.702;9.826;2022-10-23T07:15:13;9.80;99.90
20141;DHT22;10231;47.702;9.826;2022-10-23T07:17:39;9.80;99.90
20141;DHT22;10231;47.702;9.826;2022-10-23T07:20:05;9.80;99.90
20141;DHT22;10231;47.702;9.826;2022-10-23T07:22:30;9.90;99.90
20141;DHT22;10231;47.702;9.826;2022-10-23T07:24:56;9.90;99.90
20141;DHT22;10231;47.702;9.826;2022-10-23T07:27:22;9.90;99.90
20141;DHT22;10231;47.702;9.826;2022-10-23T07:29:51;9.90;99.90
20141;DHT22;10231;47.702;9.826;2022-10-23T07:32:17;10.00;99.90
20141;DHT22;10231;47.702;9.826;2022-10-23T07:34:43;10.10;99.90
20141;DHT22;10231;47.702;9.826;2022-10-23T07:37:09;10.10;99.90
20141;DHT22;10231;47.702;9.826;2022-10-23T07:39:34;10.20;99.90
20141;DHT22;10231;47.702;9.826;2022-10-23T07:42:00;10.30;99.90
20141;DHT22;10231;47.702;9.826;2022-10-23T07:44:25;10.40;99.90
20141;DHT22;10231;47.702;9.826;2022-10-23T07:46:51;10.60;99.90
20141;DHT22;10231;47.702;9.826;2022-10-23T07:49:16;10.70;99.90
20141;DHT22;10231;47.702;9.826;2022-10-23T07:51:42;10.80;99.90
20141;DHT22;10231;47.702;9.826;2022-10-23T07:54:10;10.90;99.90
20141;DHT22;10231;47.702;9.826;2022-10-23T07:56:36;11.00;99.90
20141;DHT22;10231;47.702;9.826;2022-10-23T07:59:02;11.00;99.90
20141;DHT22;10231;47.702;9.826;2022-10-23T08:01:33;11.10;99.90
20141;DHT22;10231;47.702;9.826;2022-10-23T08:04:00;11.10;99.90
20141;DHT22;10231;47.702;9.826;2022-10-23T08:06:26;11.30;99.90
20141;DHT22;10231;47.702;9.826;2022-10-23T08:08:51;11.30;99.90
20141;DHT22;10231;47.702;9.826;2022-10-23T08:11:21;11.50;99.90
20141;DHT22;10231;47.702;9.826;2022-10-23T08:13:54;11.60;99.90
20141;DHT22;10231;47.702;9.826;2022-10-23T08:16:21;11.70;99.90
20141;DHT22;10231;47.702;9.826;2022-10-23T08:18:47;11.80;99.90
20141;DHT22;10231;47.702;9.826;2022-10-23T08:21:14;11.90;99.90
20141;DHT22;10231;47.702;9.826;2022-10-23T08:23:40;11.90;99.90
20141;DHT22;10231;47.702;9.826;2022-10-23T08:26:06;12.00;99.90
20141;DHT22;10231;47.702;9.826;2022-10-23T08:28:33;12.10;99.90
20141;DHT22;10231;47.702;9.826;2022-10-23T08:31:15;12.30;99.90
20141;DHT22;10231;47.702;9.826;2022-10-23T08:33:41;12.30;99.90
20141;DHT22;10231;47.702;9.826;2022-10-23T08:36:24;12.40;99.90
20141;DHT22;10231;47.702;9.826;2022-10-23T08:38:51;12.50;99.90
20141;DHT22;10231;47.702;9.826;2022-10-23T08:43:55;12.70;99.90
20141;DHT22;10231;47.702;9.826;2022-10-23T08:46:25;12.90;99.90
20141;DHT22;10231;47.702;9.826;2022-10-23T08:51:57;13.00;99.90
20141;DHT22;10231;47.702;9.826;2022-10-23T08:54:49;13.10;99.90
20141;DHT22;10231;47.702;9.826;2022-10-23T08:57:17;13.20;99.90
20141;DHT22;10231;47.702;9.826;2022-10-23T08:59:47;13.30;99.90
20141;DHT22;10231;47.702;9.826;2022-10-23T09:04:45;13.40;99.90
20141;DHT22;10231;47.702;9.826;2022-10-23T09:07:35;13.50;99.90
20141;DHT22;10231;47.702;9.826;2022-10-23T09:16:14;13.90;99.90
20141;DHT22;10231;47.702;9.826;2022-10-23T09:18:46;14.00;99.90
20141;DHT22;10231;47.702;9.826;2022-10-23T09:21:12;14.10;99.90
20141;DHT22;10231;47.702;9.826;2022-10-23T09:23:38;14.20;99.90
20141;DHT22;10231;47.702;9.826;2022-10-23T09:26:11;14.40;99.90
20141;DHT22;10231;47.702;9.826;2022-10-23T09:28:55;14.50;99.90
20141;DHT22;10231;47.702;9.826;2022-10-23T09:31:21;14.50;99.90
20141;DHT22;10231;47.702;9.826;2022-10-23T09:33:58;14.60;99.90
20141;DHT22;10231;47.702;9.826;2022-10-23T09:36:24;14.70;99.90
20141;DHT22;10231;47.702;9.826;2022-10-23T09:38:55;14.70;99.90
20141;DHT22;10231;47.702;9.826;2022-10-23T09:41:30;14.80;99.90
20141;DHT22;10231;47.702;9.826;2022-10-23T09:44:19;14.90;99.90
20141;DHT22;10231;47.702;9.826;2022-10-23T09:46:48;15.00;99.90
20141;DHT22;10231;47.702;9.826;2022-10-23T09:52:04;15.20;99.90
20141;DHT22;10231;47.702;9.826;2022-10-23T09:54:45;15.30;99.90
20141;DHT22;10231;47.702;9.826;2022-10-23T09:57:34;15.40;99.90
20141;DHT22;10231;47.702;9.826;2022-10-23T10:00:14;15.60;99.90
20141;DHT22;10231;47.702;9.826;2022-10-23T10:02:43;15.80;99.90
20141;DHT22;10231;47.702;9.826;2022-10-23T10:05:29;15.80;99.90
20141;DHT22;10231;47.702;9.826;2022-10-23T10:08:14;15.90;99.90
20141;DHT22;10231;47.702;9.826;2022-10-23T10:10:47;16.00;99.90
20141;DHT22;10231;47.702;9.826;2022-10-23T10:15:47;16.20;99.90
20141;DHT22;10231;47.702;9.826;2022-10-23T10:18:40;16.30;99.90
20141;DHT22;10231;47.702;9.826;2022-10-23T10:21:21;16.40;99.90
20141;DHT22;10231;47.702;9.826;2022-10-23T10:23:55;16.60;99.90
20141;DHT22;10231;47.702;9.826;2022-10-23T10:34:54;17.00;99.90
20141;DHT22;10231;47.702;9.826;2022-10-23T10:37:28;17.10;99.90
20141;DHT22;10231;47.702;9.826;2022-10-23T10:40:28;17.10;99.90
20141;DHT22;10231;47.702;9.826;2022-10-23T10:45:53;17.10;99.90
20141;DHT22;10231;47.702;9.826;2022-10-23T10:51:01;17.30;99.90
20141;DHT22;10231;47.702;9.826;2022-10-23T10:56:27;17.40;99.90
20141;DHT22;10231;47.702;9.826;2022-10-23T10:59:19;17.40;99.90
20141;DHT22;10231;47.702;9.826;2022-10-23T11:02:18;17.40;99.90
20141;DHT22;10231;47.702;9.826;2022-10-23T11:05:17;17.50;99.90
20141;DHT22;10231;47.702;9.826;2022-10-23T11:07:54;17.50;99.90
20141;DHT22;10231;47.702;9.826;2022-10-23T11:10:21;17.60;99.90
20141;DHT22;10231;47.702;9.826;2022-10-23T11:12:47;17.70;99.90
20141;DHT22;10231;47.702;9.826;2022-10-23T11:15:15;17.80;99.90
20141;DHT22;10231;47.702;9.826;2022-10-23T11:17:48;17.80;99.90
20141;DHT22;10231;47.702;9.826;2022-10-23T11:23:31;17.90;99.90
20141;DHT22;10231;47.702;9.826;2022-10-23T11:26:31;18.00;99.90
20141;DHT22;10231;47.702;9.826;2022-10-23T11:32:17;18.00;99.90
20141;DHT22;10231;47.702;9.826;2022-10-23T11:35:25;18.00;99.90
20141;DHT22;10231;47.702;9.826;2022-10-23T11:38:04;18.10;99.90
20141;DHT22;10231;47.702;9.826;2022-10-23T11:40:33;18.10;99.90
20141;DHT22;10231;47.702;9.826;2022-10-23T11:42:59;18.10;99.90
20141;DHT22;10231;47.702;9.826;2022-10-23T11:45:38;18.00;99.90
20141;DHT22;10231;47.702;9.826;2022-10-23T11:50:58;17.90;99.90
20141;DHT22;10231;47.702;9.826;2022-10-23T11:58:56;17.80;99.90
20141;DHT22;10231;47.702;9.826;2022-10-23T12:01:40;17.80;99.90
20141;DHT22;10231;47.702;9.826;2022-10-23T12:09:43;17.80;99.90
20141;DHT22;10231;47.702;9.826;2022-10-23T12:17:16;17.80;99.90
20141;DHT22;10231;47.702;9.826;2022-10-23T12:19:50;17.80;99.90
20141;DHT22;10231;47.702;9.826;2022-10-23T12:22:16;17.80;99.90
20141;DHT22;10231;47.702;9.826;2022-10-23T12:24:59;17.70;99.90
20141;DHT22;10231;47.702;9.826;2022-10-23T12:27:43;17.70;99.90
20141;DHT22;10231;47.702;9.826;2022-10-23T12:30:27;17.70;99.90
20141;DHT22;10231;47.702;9.826;2022-10-23T12:33:23;17.70;99.90
20141;DHT22;10231;47.702;9.826;2022-10-23T12:36:16;17.80;99.90
20141;DHT22;10231;47.702;9.826;2022-10-23T12:38:47;17.80;99.90
20141;DHT22;10231;47.702;9.826;2022-10-23T12:41:28;17.70;99.90
20141;DHT22;10231;47.702;9.826;2022-10-23T12:44:02;17.70;99.90
20141;DHT22;10231;47.702;9.826;2022-10-23T12:46:35;17.70;99.90
20141;DHT22;10231;47.702;9.826;2022-10-23T12:49:16;17.70;99.90
20141;DHT22;10231;47.702;9.826;2022-10-23T12:51:42;17.60;99.90
20141;DHT22;10231;47.702;9.826;2022-10-23T12:54:18;17.60;99.90
20141;DHT22;10231;47.702;9.826;2022-10-23T12:56:44;17.70;99.90
20141;DHT22;10231;47.702;9.826;2022-10-23T13:01:41;17.60;99.90
20141;DHT22;10231;47.702;9.826;2022-10-23T13:06:49;17.70;99.90
20141;DHT22;10231;47.702;9.826;2022-10-23T13:09:40;17.80;99.90
20141;DHT22;10231;47.702;9.826;2022-10-23T13:12:07;18.00;99.90
20141;DHT22;10231;47.702;9.826;2022-10-23T13:17:05;18.00;99.90
20141;DHT22;10231;47.702;9.826;2022-10-23T13:19:31;17.90;99.90
20141;DHT22;10231;47.702;9.826;2022-10-23T13:21:58;17.90;99.90
20141;DHT22;10231;47.702;9.826;2022-10-23T13:24:26;17.90;99.90
20141;DHT22;10231;47.702;9.826;2022-10-23T13:26:53;17.90;99.90
20141;DHT22;10231;47.702;9.826;2022-10-23T13:29:29;17.80;99.90
20141;DHT22;10231;47.702;9.826;2022-10-23T13:31:56;17.80;99.90
20141;DHT22;10231;47.702;9.826;2022-10-23T13:34:27;17.80;99.90
20141;DHT22;10231;47.702;9.826;2022-10-23T13:39:27;17.60;99.90
20141;DHT22;10231;47.702;9.826;2022-10-23T13:41:52;17.60;99.90
20141;DHT22;10231;47.702;9.826;2022-10-23T13:44:20;17.70;99.90
20141;DHT22;10231;47.702;9.826;2022-10-23T13:46:47;17.70;99.90
20141;DHT22;10231;47.702;9.826;2022-10-23T13:49:13;17.70;99.90
20141;DHT22;10231;47.702;9.826;2022-10-23T13:51:45;17.70;99.90
20141;DHT22;10231;47.702;9.826;2022-10-23T13:54:16;17.70;99.90
20141;DHT22;10231;47.702;9.826;2022-10-23T13:56:42;17.70;99.90
20141;DHT22;10231;47.702;9.826;2022-10-23T13:59:09;17.70;99.90
20141;DHT22;10231;47.702;9.826;2022-10-23T14:01:35;17.70;99.90
20141;DHT22;10231;47.702;9.826;2022-10-23T14:04:02;17.60;99.90
20141;DHT22;10231;47.702;9.826;2022-10-23T14:06:30;17.70;99.90
20141;DHT22;10231;47.702;9.826;2022-10-23T14:08:56;17.60;99.90
20141;DHT22;10231;47.702;9.826;2022-10-23T14:11:22;17.60;99.90
20141;DHT22;10231;47.702;9.826;2022-10-23T14:13:48;17.50;99.90
20141;DHT22;10231;47.702;9.826;2022-10-23T14:16:16;17.60;99.90
20141;DHT22;10231;47.702;9.826;2022-10-23T14:18:42;17.50;99.90
20141;DHT22;10231;47.702;9.826;2022-10-23T14:21:15;17.50;99.90
20141;DHT22;10231;47.702;9.826;2022-10-23T14:23:41;17.40;99.90
20141;DHT22;10231;47.702;9.826;2022-10-23T14:26:09;17.40;99.90
20141;DHT22;10231;47.702;9.826;2022-10-23T14:28:35;17.30;99.90
20141;DHT22;10231;47.702;9.826;2022-10-23T14:31:08;17.30;99.90
20141;DHT22;10231;47.702;9.826;2022-10-23T14:33:34;17.40;99.90
20141;DHT22;10231;47.702;9.826;2022-10-23T14:36:00;17.40;99.90
20141;DHT22;10231;47.702;9.826;2022-10-23T14:38:26;17.50;99.90
20141;DHT22;10231;47.702;9.826;2022-10-23T14:40:52;17.50;99.90
20141;DHT22;10231;47.702;9.826;2022-10-23T14:43:17;17.40;99.90
20141;DHT22;10231;47.702;9.826;2022-10-23T14:45:43;17.40;99.90
20141;DHT22;10231;47.702;9.826;2022-10-23T14:48:09;17.30;99.90
20141;DHT22;10231;47.702;9.826;2022-10-23T14:50:36;17.20;99.90
20141;DHT22;10231;47.702;9.826;2022-10-23T14:53:03;17.20;99.90
20141;DHT22;10231;47.702;9.826;2022-10-23T14:55:29;17.10;99.90
20141;DHT22;10231;47.702;9.826;2022-10-23T14:57:56;17.10;99.90
20141;DHT22;10231;47.702;9.826;2022-10-23T15:00:22;17.00;99.90
20141;DHT22;10231;47.702;9.826;2022-10-23T15:02:48;17.00;99.90
20141;DHT22;10231;47.702;9.826;2022-10-23T15:05:14;16.90;99.90
20141;DHT22;10231;47.702;9.826;2022-10-23T15:07:39;16.90;99.90
20141;DHT22;10231;47.702;9.826;2022-10-23T15:10:06;16.90;99.90
20141;DHT22;10231;47.702;9.826;2022-10-23T15:12:36;16.90;99.90
20141;DHT22;10231;47.702;9.826;2022-10-23T15:15:02;16.90;99.90
20141;DHT22;10231;47.702;9.826;2022-10-23T15:17:28;16.80;99.90
20141;DHT22;10231;47.702;9.826;2022-10-23T15:19:53;16.80;99.90
20141;DHT22;10231;47.702;9.826;2022-10-23T15:22:19;16.80;99.90
20141;DHT22;10231;47.702;9.826;2022-10-23T15:24:45;16.70;99.90
20141;DHT22;10231;47.702;9.826;2022-10-23T15:27:12;16.70;99.90
20141;DHT22;10231;47.702;9.826;2022-10-23T15:29:37;16.70;99.90
20141;DHT22;10231;47.702;9.826;2022-10-23T15:32:04;16.60;99.90
20141;DHT22;10231;47.702;9.826;2022-10-23T15:34:30;16.60;99.90
20141;DHT22;10231;47.702;9.826;2022-10-23T15:36:57;16.60;99.90
20141;DHT22;10231;47.702;9.826;2022-10-23T15:39:26;16.60;99.90
20141;DHT22;10231;47.702;9.826;2022-10-23T15:41:54;16.60;99.90
20141;DHT22;10231;47.702;9.826;2022-10-23T15:44:22;16.60;99.90
20141;DHT22;10231;47.702;9.826;2022-10-23T15:46:49;16.50;99.90
20141;DHT22;10231;47.702;9.826;2022-10-23T15:49:15;16.50;99.90
20141;DHT22;10231;47.702;9.826;2022-10-23T15:51:41;16.50;99.90
20141;DHT22;10231;47.702;9.826;2022-10-23T15:54:10;16.50;99.90
20141;DHT22;10231;47.702;9.826;2022-10-23T15:56:37;16.40;99.90
20141;DHT22;10231;47.702;9.826;2022-10-23T15:59:03;16.40;99.90
20141;DHT22;10231;47.702;9.826;2022-10-23T16:01:28;16.40;99.90
20141;DHT22;10231;47.702;9.826;2022-10-23T16:03:54;16.30;99.90
20141;DHT22;10231;47.702;9.826;2022-10-23T16:06:20;16.30;99.90
20141;DHT22;10231;47.702;9.826;2022-10-23T16:08:46;16.30;99.90
20141;DHT22;10231;47.702;9.826;2022-10-23T16:11:20;16.30;99.90
20141;DHT22;10231;47.702;9.826;2022-10-23T16:13:47;16.20;99.90
20141;DHT22;10231;47.702;9.826;2022-10-23T16:16:13;16.10;99.90
20141;DHT22;10231;47.702;9.826;2022-10-23T16:18:39;16.00;99.90
20141;DHT22;10231;47.702;9.826;2022-10-23T16:21:06;15.90;99.90
20141;DHT22;10231;47.702;9.826;2022-10-23T16:23:32;15.80;99.90
20141;DHT22;10231;47.702;9.826;2022-10-23T16:26:04;15.70;99.90
20141;DHT22;10231;47.702;9.826;2022-10-23T16:28:30;15.70;99.90
20141;DHT22;10231;47.702;9.826;2022-10-23T16:30:56;15.60;99.90
20141;DHT22;10231;47.702;9.826;2022-10-23T16:33:22;15.60;99.90
20141;DHT22;10231;47.702;9.826;2022-10-23T16:35:47;15.60;99.90
20141;DHT22;10231;47.702;9.826;2022-10-23T16:38:13;15.60;99.90
20141;DHT22;10231;47.702;9.826;2022-10-23T16:40:38;15.50;99.90
20141;DHT22;10231;47.702;9.826;2022-10-23T16:43:04;15.40;99.90
20141;DHT22;10231;47.702;9.826;2022-10-23T16:45:29;15.40;99.90
20141;DHT22;10231;47.702;9.826;2022-10-23T16:47:55;15.30;99.90
20141;DHT22;10231;47.702;9.826;2022-10-23T16:50:20;15.20;99.90
20141;DHT22;10231;47.702;9.826;2022-10-23T16:52:47;15.20;99.90
20141;DHT22;10231;47.702;9.826;2022-10-23T16:55:13;15.20;99.90
20141;DHT22;10231;47.702;9.826;2022-10-23T16:57:38;15.20;99.90
20141;DHT22;10231;47.702;9.826;2022-10-23T17:00:05;15.10;99.90
20141;DHT22;10231;47.702;9.826;2022-10-23T17:02:31;15.00;99.90
20141;DHT22;10231;47.702;9.826;2022-10-23T17:04:56;15.00;99.90
20141;DHT22;10231;47.702;9.826;2022-10-23T17:07:22;15.00;99.90
20141;DHT22;10231;47.702;9.826;2022-10-23T17:09:48;14.90;99.90
20141;DHT22;10231;47.702;9.826;2022-10-23T17:12:14;14.90;99.90
20141;DHT22;10231;47.702;9.826;2022-10-23T17:14:39;14.90;99.90
20141;DHT22;10231;47.702;9.826;2022-10-23T17:17:05;14.80;99.90
20141;DHT22;10231;47.702;9.826;2022-10-23T17:19:31;14.70;99.90
20141;DHT22;10231;47.702;9.826;2022-10-23T17:21:58;14.70;99.90
20141;DHT22;10231;47.702;9.826;2022-10-23T17:24:24;14.70;99.90